DNP weather

Tulsipur Airport
Dang, Rapti, Nepal

Public forecast

Using degrees Celsius for public forecast. Weather courtesy of forecast.io.

METAR (pilot weather report)

Closest report is Gorakhpur Airport, 102.8 nm (190.4 km) SE. Retrieved 2019/07/18 17:30 UTC (58 minutes ago):

VEGK 181730Z VRB01KT 6000 SCT250 29/29 Q1002 NOSIG

TAF (pilot weather forecast)

Forecast is more than 6 hours old.

Closest forecast is Gorakhpur Airport, 102.8 nm (190.4 km) SE. Retrieved 2019/07/18 06:30 UTC (12 hours ago):

TAF VEGK 180330Z 1806/1818 29010KT 6000 SCT030 SCT100 TEMPO 1808/1810 3000 TSRA SCT015 SCT030 FEW030CB BKN090